Aviation Digital Data Service (ADDS)

Output produced by METARs form (0731 UTC 27 September 2020)
found at http://aviationweather.gov/metar/data/
 
TAF EPDA 270500Z 2706/2715 33006KT 9999 BKN020 
     TEMPO 2706/2715 5000 -RA BR BKN015 
     PROB30 
     TEMPO 2706/2715 3000 SHRA BKN005 OVC010CB 
     BECMG 2710/2712 07008KT